createdAt,value
2022-10-28T00:09:11.369Z,75588.63
2022-10-28T00:19:18.965Z,75592.66
2022-10-28T00:29:21.916Z,75596.72
2022-10-28T00:39:25.308Z,75596.72
2022-10-28T00:49:30.130Z,75614.94
2022-10-28T00:59:36.958Z,75612.91
2022-10-28T01:09:42.246Z,75629.09
2022-10-28T01:20:21.593Z,75625.03
2022-10-28T01:30:28.260Z,75635.16
2022-10-28T01:41:09.441Z,75633.13
2022-10-28T01:51:25.541Z,75629.09
2022-10-28T02:01:29.309Z,75639.22
2022-10-28T02:12:04.669Z,75647.31
2022-10-28T02:22:09.811Z,75633.13
2022-10-28T02:32:20.235Z,75637.19
2022-10-28T02:42:44.524Z,75635.16
2022-10-28T02:52:51.502Z,75635.16
2022-10-28T03:02:57.870Z,75649.31
2022-10-28T03:13:02.892Z,75671.59
2022-10-28T03:23:07.223Z,75685.75
2022-10-28T03:33:14.214Z,75689.81
2022-10-28T03:43:17.990Z,75699.91
2022-10-28T03:53:27.685Z,75693.84
2022-10-28T04:03:34.780Z,75706.00
2022-10-28T04:13:42.474Z,75701.94
2022-10-28T04:23:48.156Z,75712.06
2022-10-28T04:33:50.495Z,75722.19
2022-10-28T04:43:52.728Z,75726.22
2022-10-28T04:53:57.076Z,75738.38
2022-10-28T05:03:59.363Z,75728.25
2022-10-28T05:14:04.597Z,75708.03
2022-10-28T05:24:08.987Z,75703.97
2022-10-28T05:34:13.874Z,75742.41
2022-10-28T05:44:20.139Z,75782.91
2022-10-28T05:54:22.341Z,75784.91
2022-10-28T06:04:27.682Z,75762.66
2022-10-28T06:14:29.327Z,75734.31
2022-10-28T06:24:31.438Z,75714.09
2022-10-28T06:34:37.840Z,75689.81
2022-10-28T06:44:42.540Z,75631.13
2022-10-28T06:54:48.566Z,75536.00
2022-10-28T07:04:50.608Z,75420.66
2022-10-28T07:14:52.623Z,75351.84
2022-10-28T07:24:57.094Z,75305.31
2022-10-28T07:35:01.447Z,75196.03
2022-10-28T07:45:07.200Z,75185.91
2022-10-28T07:55:12.471Z,75187.94
2022-10-28T08:05:17.217Z,75066.53
2022-10-28T08:15:24.789Z,75115.09
2022-10-28T08:25:28.974Z,75147.47
2022-10-28T08:35:35.550Z,75175.78
2022-10-28T08:46:02.128Z,75179.84
2022-10-28T08:56:46.314Z,75204.13
2022-10-28T09:06:50.629Z,75123.19
2022-10-28T09:17:35.497Z,75046.28
2022-10-28T09:27:55.579Z,75034.16
2022-10-28T09:38:18.809Z,75017.97
2022-10-28T09:48:31.555Z,74985.59
2022-10-28T09:58:38.890Z,74987.63
2022-10-28T10:08:45.394Z,74924.88
2022-10-28T10:18:54.677Z,74912.75
2022-10-28T10:29:01.696Z,74930.97
2022-10-28T10:39:24.743Z,74892.50
2022-10-28T10:49:30.258Z,74898.59
2022-10-28T10:59:35.402Z,74876.31
2022-10-28T11:09:45.194Z,74860.13
2022-10-28T11:19:54.980Z,74848.00
2022-10-28T11:30:00.511Z,74815.63
2022-10-28T11:40:46.157Z,74783.25
2022-10-28T11:51:02.312Z,74754.94
2022-10-28T12:01:44.117Z,74726.59
2022-10-28T12:12:41.195Z,74706.38
2022-10-28T12:22:49.900Z,74669.94
2022-10-28T12:33:07.317Z,74633.53
2022-10-28T12:43:36.026Z,74599.13
2022-10-28T12:53:53.277Z,74564.75
2022-10-28T13:04:47.024Z,74550.56
2022-10-28T13:15:12.146Z,74542.47
2022-10-28T13:25:38.837Z,74544.50
2022-10-28T13:35:43.261Z,74550.56
2022-10-28T13:45:56.076Z,74560.69
2022-10-28T13:56:12.424Z,74584.97
2022-10-28T14:06:31.298Z,74613.28
2022-10-28T14:16:33.260Z,74611.28
2022-10-28T14:27:06.863Z,74597.09
2022-10-28T14:37:32.200Z,74580.94
2022-10-28T14:48:01.160Z,74568.78
2022-10-28T14:58:18.638Z,74580.94
2022-10-28T15:08:21.771Z,74597.09
2022-10-28T15:18:26.472Z,74595.09
2022-10-28T15:28:28.570Z,74607.22
2022-10-28T15:38:51.514Z,74617.34
2022-10-28T15:48:57.393Z,74627.47
2022-10-28T15:59:21.863Z,74629.47
2022-10-28T16:09:29.691Z,74635.56
2022-10-28T16:19:37.276Z,74633.53
2022-10-28T16:29:41.602Z,74637.56
2022-10-28T16:39:45.834Z,74627.47
2022-10-28T16:49:54.375Z,74627.47
2022-10-28T17:00:00.974Z,74627.47
2022-10-28T17:10:03.139Z,74649.72
2022-10-28T17:20:06.005Z,74655.78
2022-10-28T17:30:08.969Z,74682.09
2022-10-28T17:40:16.306Z,74694.22
2022-10-28T17:50:18.436Z,74692.19
2022-10-28T18:00:23.071Z,74692.19
2022-10-28T18:10:27.510Z,74657.81
2022-10-28T18:20:34.723Z,74649.72
2022-10-28T18:30:39.016Z,74663.88
2022-10-28T18:41:05.387Z,74663.88
2022-10-28T18:51:13.779Z,74682.09
2022-10-28T19:01:21.663Z,74684.09
2022-10-28T19:11:30.445Z,74661.84
2022-10-28T19:21:33.755Z,74653.75
2022-10-28T19:31:42.046Z,74667.91
2022-10-28T19:41:51.432Z,74667.91
2022-10-28T19:51:53.941Z,74659.81
2022-10-28T20:01:56.050Z,74669.94
2022-10-28T20:11:59.313Z,74667.91
2022-10-28T20:22:01.438Z,74686.13
2022-10-28T20:32:05.728Z,74669.94
2022-10-28T20:42:07.935Z,74696.25
2022-10-28T20:52:16.820Z,74669.94
2022-10-28T21:02:20.248Z,74633.53
2022-10-28T21:12:26.066Z,74627.47
2022-10-28T21:22:28.061Z,74639.59
2022-10-28T21:32:38.408Z,74643.66
2022-10-28T21:42:40.437Z,74643.66
2022-10-28T21:52:47.136Z,74663.88
2022-10-28T22:02:57.362Z,74669.94
2022-10-28T22:13:06.547Z,74676.00
2022-10-28T22:23:08.587Z,74690.19
2022-10-28T22:33:10.601Z,74702.31
2022-10-28T22:43:15.676Z,74722.56
2022-10-28T22:53:22.454Z,74742.78
2022-10-28T23:03:29.427Z,74734.69
2022-10-28T23:13:31.637Z,74740.75
2022-10-28T23:23:38.406Z,74744.81
2022-10-28T23:33:40.695Z,74746.84
2022-10-28T23:43:43.265Z,74763.03
2022-10-28T23:53:47.663Z,74777.19
